createdAt,value
2023-05-28T00:01:33.672Z,100326.00
2023-05-28T00:04:36.288Z,100322.47
2023-05-28T00:07:40.538Z,100320.34
2023-05-28T00:10:43.570Z,100324.13
2023-05-28T00:13:45.952Z,100314.47
2023-05-28T00:16:48.479Z,100318.50
2023-05-28T00:19:51.008Z,100312.84
2023-05-28T00:22:53.895Z,100305.53
2023-05-28T00:25:56.388Z,100305.53
2023-05-28T00:28:58.865Z,100313.13
2023-05-28T00:32:01.239Z,100312.06
2023-05-28T00:35:04.066Z,100323.91
2023-05-28T00:38:06.450Z,100305.56
2023-05-28T00:41:08.874Z,100303.16
2023-05-28T00:44:11.273Z,100299.63
2023-05-28T00:47:14.881Z,100303.94
2023-05-28T00:50:18.265Z,100302.03
2023-05-28T00:53:20.998Z,100295.03
2023-05-28T00:56:27.742Z,100300.69
2023-05-28T00:59:31.446Z,100286.16
2023-05-28T01:02:33.853Z,100289.41
2023-05-28T01:05:36.635Z,100288.84
2023-05-28T01:08:39.653Z,100290.22
2023-05-28T01:11:43.661Z,100287.22
2023-05-28T01:14:49.350Z,100278.88
2023-05-28T01:17:53.686Z,100280.19
2023-05-28T01:20:56.581Z,100272.13
2023-05-28T01:24:00.229Z,100276.16
2023-05-28T01:27:03.542Z,100278.03
2023-05-28T01:30:10.640Z,100276.44
2023-05-28T01:33:13.925Z,100274.53
2023-05-28T01:36:23.182Z,100274.53
2023-05-28T01:39:28.714Z,100272.94
2023-05-28T01:42:32.191Z,100276.44
2023-05-28T01:45:34.759Z,100271.84
2023-05-28T01:48:37.779Z,100273.47
2023-05-28T01:51:40.134Z,100271.59
2023-05-28T01:54:42.512Z,100265.38
2023-05-28T01:57:44.971Z,100265.66
2023-05-28T02:00:55.127Z,100259.19
2023-05-28T02:03:58.459Z,100260.78
2023-05-28T02:07:01.061Z,100262.69
2023-05-28T02:10:04.085Z,100267.25
2023-05-28T02:13:06.596Z,100258.88
2023-05-28T02:16:09.303Z,100256.19
2023-05-28T02:19:12.373Z,100252.69
2023-05-28T02:22:14.748Z,100257.81
2023-05-28T02:25:17.070Z,100255.63
2023-05-28T02:28:19.418Z,100252.69
2023-05-28T02:31:21.786Z,100249.97
2023-05-28T02:34:24.169Z,100252.88
2023-05-28T02:37:26.592Z,100254.53
2023-05-28T02:40:28.899Z,100256.44
2023-05-28T02:43:31.324Z,100261.75
2023-05-28T02:46:33.865Z,100267.09
2023-05-28T02:49:36.236Z,100265.75
2023-05-28T02:52:38.560Z,100258.44
2023-05-28T02:55:41.710Z,100254.69
2023-05-28T02:58:44.060Z,100255.22
2023-05-28T03:01:46.678Z,100250.66
2023-05-28T03:04:50.099Z,100261.13
2023-05-28T03:07:53.436Z,100267.03
2023-05-28T03:10:55.860Z,100262.44
2023-05-28T03:13:58.186Z,100255.41
2023-05-28T03:17:01.069Z,100257.31
2023-05-28T03:20:04.519Z,100248.13
2023-05-28T03:23:06.922Z,100251.66
2023-05-28T03:26:19.125Z,100270.50
2023-05-28T03:29:21.407Z,100252.19
2023-05-28T03:32:30.385Z,100269.19
2023-05-28T03:35:32.763Z,100266.69
2023-05-28T03:38:35.038Z,100261.06
2023-05-28T03:41:38.066Z,100260.00
2023-05-28T03:44:41.253Z,100262.44
2023-05-28T03:47:44.325Z,100262.72
2023-05-28T03:50:47.305Z,100258.13
2023-05-28T03:53:49.730Z,100253.56
2023-05-28T03:56:52.550Z,100254.41
2023-05-28T03:59:58.032Z,100248.50
2023-05-28T04:03:00.404Z,100255.53
2023-05-28T04:06:03.899Z,100259.59
2023-05-28T04:09:06.259Z,100255.25
2023-05-28T04:12:09.863Z,100256.91
2023-05-28T04:15:13.656Z,100262.81
2023-05-28T04:18:16.179Z,100268.81
2023-05-28T04:21:19.898Z,100256.44
2023-05-28T04:24:22.263Z,100255.84
2023-05-28T04:27:24.685Z,100258.00
2023-05-28T04:30:28.933Z,100258.34
2023-05-28T04:33:31.918Z,100260.78
2023-05-28T04:36:37.974Z,100267.25
2023-05-28T04:39:40.402Z,100267.00
2023-05-28T04:42:44.239Z,100269.16
2023-05-28T04:45:47.329Z,100266.75
2023-05-28T04:48:50.144Z,100271.31
2023-05-28T04:51:53.882Z,100272.41
2023-05-28T04:54:57.604Z,100274.28
2023-05-28T04:57:59.915Z,100273.19
2023-05-28T05:01:03.746Z,100256.22
2023-05-28T05:04:07.086Z,100264.84
2023-05-28T05:07:09.622Z,100271.03
2023-05-28T05:10:12.024Z,100261.28
2023-05-28T05:13:14.357Z,100268.28
2023-05-28T05:16:20.274Z,100275.28
2023-05-28T05:19:22.595Z,100269.81
2023-05-28T05:22:25.324Z,100264.63
2023-05-28T05:25:27.685Z,100260.00
2023-05-28T05:28:31.557Z,100270.66
2023-05-28T05:31:36.591Z,100258.94
2023-05-28T05:34:40.379Z,100252.06
2023-05-28T05:38:01.257Z,100248.72
2023-05-28T05:41:23.582Z,100242.19
2023-05-28T05:44:30.542Z,100241.94
2023-05-28T05:47:34.502Z,100247.28
2023-05-28T05:50:51.033Z,100252.38
2023-05-28T05:53:53.331Z,100251.88
2023-05-28T05:56:55.730Z,100256.06
2023-05-28T05:59:58.735Z,100252.56
2023-05-28T06:03:02.474Z,100252.28
2023-05-28T06:06:23.500Z,100256.94
2023-05-28T06:09:44.753Z,100272.97
2023-05-28T06:12:53.753Z,100263.03
2023-05-28T06:15:56.128Z,100265.03
2023-05-28T06:18:58.515Z,100257.69
2023-05-28T06:22:00.849Z,100261.78
2023-05-28T06:25:04.409Z,100262.00
2023-05-28T06:28:07.519Z,100259.81
2023-05-28T06:31:09.807Z,100264.75
2023-05-28T06:34:12.099Z,100271.88
2023-05-28T06:37:14.430Z,100270.34
2023-05-28T06:40:17.746Z,100269.22
2023-05-28T06:43:20.088Z,100268.34
2023-05-28T06:46:45.264Z,100264.53
2023-05-28T06:49:49.316Z,100272.28
2023-05-28T06:52:51.672Z,100260.31
2023-05-28T06:55:54.221Z,100270.38
2023-05-28T06:59:14.886Z,100261.56
2023-05-28T07:02:31.235Z,100258.72
2023-05-28T07:05:48.488Z,100260.03
2023-05-28T07:08:50.992Z,100260.22
2023-05-28T07:11:53.368Z,100251.25
2023-05-28T07:14:56.399Z,100253.97
2023-05-28T07:17:58.883Z,100262.50
2023-05-28T07:21:01.527Z,100256.66
2023-05-28T07:24:11.179Z,100260.19
2023-05-28T07:27:13.474Z,100259.22
2023-05-28T07:30:15.909Z,100262.13
2023-05-28T07:33:18.306Z,100245.38
2023-05-28T07:36:21.857Z,100256.28
2023-05-28T07:39:24.398Z,100255.09
2023-05-28T07:42:27.076Z,100245.59
2023-05-28T07:45:37.597Z,100244.38
2023-05-28T07:48:40.943Z,100242.66
2023-05-28T07:52:02.329Z,100255.53
2023-05-28T07:55:08.584Z,100245.56
2023-05-28T07:58:13.076Z,100244.69
2023-05-28T08:01:16.271Z,100237.28
2023-05-28T08:04:18.692Z,100235.72
2023-05-28T08:07:21.129Z,100243.59
2023-05-28T08:10:23.514Z,100237.75
2023-05-28T08:13:26.458Z,100231.91
2023-05-28T08:16:28.793Z,100235.38
2023-05-28T08:23:35.950Z,100227.38
2023-05-28T08:26:42.310Z,100223.16
2023-05-28T08:29:44.919Z,100225.56
2023-05-28T08:32:47.278Z,100221.66
2023-05-28T08:35:50.289Z,100220.72
2023-05-28T08:38:53.134Z,100216.50
2023-05-28T08:41:56.886Z,100210.81
2023-05-28T08:44:59.286Z,100214.41
2023-05-28T08:48:08.045Z,100207.72
2023-05-28T08:51:14.521Z,100212.28
2023-05-28T08:54:19.562Z,100203.88
2023-05-28T08:57:22.289Z,100203.41
2023-05-28T09:00:33.122Z,100204.09
2023-05-28T09:03:55.512Z,100203.63
2023-05-28T09:07:07.025Z,100195.06
2023-05-28T09:10:16.594Z,100197.16
2023-05-28T09:13:21.770Z,100189.00
2023-05-28T09:16:25.676Z,100199.97
2023-05-28T09:19:36.187Z,100189.59
2023-05-28T09:22:41.514Z,100191.56
2023-05-28T09:26:01.678Z,100177.38
2023-05-28T09:29:14.150Z,100186.28
2023-05-28T09:32:22.040Z,100187.88
2023-05-28T09:35:28.019Z,100169.50
2023-05-28T09:38:40.847Z,100177.00
2023-05-28T09:41:45.626Z,100171.78
2023-05-28T09:44:48.989Z,100169.06
2023-05-28T09:47:51.509Z,100175.84
2023-05-28T09:50:54.257Z,100168.38
2023-05-28T09:53:59.063Z,100173.22
2023-05-28T09:57:04.078Z,100163.25
2023-05-28T10:00:14.827Z,100165.13
2023-05-28T10:03:45.522Z,100169.56
2023-05-28T10:06:47.930Z,100164.66
2023-05-28T10:09:51.752Z,100160.75
2023-05-28T10:12:54.721Z,100165.16
2023-05-28T10:15:57.489Z,100158.50
2023-05-28T10:19:01.030Z,100160.69
2023-05-28T10:22:03.761Z,100149.38
2023-05-28T10:25:09.019Z,100141.16
2023-05-28T10:28:15.688Z,100136.25
2023-05-28T10:31:22.668Z,100141.47
2023-05-28T10:34:31.189Z,100135.81
2023-05-28T10:37:33.706Z,100135.56
2023-05-28T10:40:36.457Z,100132.19
2023-05-28T10:43:38.772Z,100137.75
2023-05-28T10:46:41.611Z,100135.28
2023-05-28T10:50:18.536Z,100141.41
2023-05-28T10:53:21.906Z,100127.31
2023-05-28T10:56:26.601Z,100126.22
2023-05-28T10:59:47.293Z,100130.31
2023-05-28T11:02:53.102Z,100122.88
2023-05-28T11:05:55.688Z,100116.13
2023-05-28T11:08:58.271Z,100116.94
2023-05-28T11:12:02.902Z,100103.38
2023-05-28T11:15:06.493Z,100111.25
2023-05-28T11:18:09.164Z,100105.78
2023-05-28T11:21:12.810Z,100099.22
2023-05-28T11:24:15.122Z,100095.22
2023-05-28T11:27:18.140Z,100083.53
2023-05-28T11:30:20.849Z,100090.34
2023-05-28T11:33:23.186Z,100080.78
2023-05-28T11:36:25.909Z,100075.72
2023-05-28T11:39:28.237Z,100077.97
2023-05-28T11:42:34.397Z,100080.00
2023-05-28T11:45:40.757Z,100075.22
2023-05-28T11:48:43.153Z,100061.56
2023-05-28T11:51:45.437Z,100056.78
2023-05-28T11:54:50.166Z,100061.09
2023-05-28T11:57:56.536Z,100056.41
2023-05-28T12:00:58.916Z,100061.63
2023-05-28T12:04:08.366Z,100049.69
2023-05-28T12:07:12.533Z,100061.81
2023-05-28T12:10:18.176Z,100058.16
2023-05-28T12:13:20.737Z,100058.72
2023-05-28T12:16:23.177Z,100046.41
2023-05-28T12:19:33.060Z,100042.25
2023-05-28T12:22:35.396Z,100046.31
2023-05-28T12:25:47.219Z,100057.47
2023-05-28T12:28:49.525Z,100052.16
2023-05-28T12:31:59.346Z,100046.41
2023-05-28T12:35:03.279Z,100055.06
2023-05-28T12:38:06.057Z,100045.19
2023-05-28T12:41:08.594Z,100050.44
2023-05-28T12:44:10.916Z,100058.19
2023-05-28T12:47:13.364Z,100047.91
2023-05-28T12:50:15.782Z,100024.41
2023-05-28T12:53:18.545Z,100039.03
2023-05-28T12:56:20.889Z,100033.63
2023-05-28T12:59:27.926Z,100037.28
2023-05-28T13:02:30.312Z,100030.38
2023-05-28T13:05:34.193Z,100031.06
2023-05-28T13:08:36.633Z,100031.84
2023-05-28T13:11:40.567Z,100030.38
2023-05-28T13:14:42.876Z,100020.78
2023-05-28T13:17:45.817Z,100026.44
2023-05-28T13:20:48.216Z,100027.72
2023-05-28T13:23:50.652Z,100021.25
2023-05-28T13:26:52.942Z,100026.47
2023-05-28T13:29:55.460Z,100017.47
2023-05-28T13:32:57.927Z,100023.78
2023-05-28T13:36:00.354Z,100010.44
2023-05-28T13:39:02.745Z,100004.69
2023-05-28T13:42:05.244Z,99996.59
2023-05-28T13:45:08.636Z,100009.56
2023-05-28T13:48:11.011Z,100001.59
2023-05-28T13:51:13.344Z,99995.09
2023-05-28T13:54:16.329Z,99998.78
2023-05-28T13:57:21.276Z,99989.31
2023-05-28T14:00:38.078Z,99996.94
2023-05-28T14:03:46.496Z,99989.31
2023-05-28T14:06:51.711Z,99980.72
2023-05-28T14:09:54.040Z,99981.88
2023-05-28T14:12:56.421Z,99981.31
2023-05-28T14:16:01.942Z,99992.50
2023-05-28T14:19:04.228Z,99983.72
2023-05-28T14:22:06.504Z,99978.06
2023-05-28T14:25:09.338Z,99969.50
2023-05-28T14:28:12.603Z,99959.78
2023-05-28T14:31:15.133Z,99970.41
2023-05-28T14:34:17.470Z,99973.25
2023-05-28T14:37:20.098Z,99966.63
2023-05-28T14:40:22.484Z,99966.19
2023-05-28T14:43:24.786Z,99968.00
2023-05-28T14:46:27.329Z,99962.31
2023-05-28T14:49:29.723Z,99955.53
2023-05-28T14:52:32.206Z,99958.94
2023-05-28T14:55:34.782Z,99947.94
2023-05-28T14:58:37.345Z,99953.16
2023-05-28T15:01:39.822Z,99954.41
2023-05-28T15:04:45.258Z,99970.13
2023-05-28T15:07:48.314Z,99963.13
2023-05-28T15:10:50.707Z,99946.94
2023-05-28T15:13:55.300Z,99961.06
2023-05-28T15:16:58.751Z,99953.63
2023-05-28T15:20:01.247Z,99950.13
2023-05-28T15:23:03.698Z,99950.34
2023-05-28T15:26:06.111Z,99937.97
2023-05-28T15:29:08.631Z,99927.63
2023-05-28T15:32:12.401Z,99939.69
2023-05-28T15:35:15.606Z,99938.06
2023-05-28T15:38:18.272Z,99931.41
2023-05-28T15:41:21.347Z,99932.75
2023-05-28T15:44:23.895Z,99928.56
2023-05-28T15:47:26.464Z,99943.53
2023-05-28T15:50:28.967Z,99930.97
2023-05-28T15:53:32.823Z,99941.59
2023-05-28T15:56:35.234Z,99938.56
2023-05-28T15:59:43.134Z,99939.03
2023-05-28T16:02:46.049Z,99939.69
2023-05-28T16:05:48.793Z,99939.22
2023-05-28T16:08:51.179Z,99951.00
2023-05-28T16:11:56.312Z,99948.56
2023-05-28T16:14:59.115Z,99945.25
2023-05-28T16:18:04.625Z,99949.78
2023-05-28T16:21:07.832Z,99949.31
2023-05-28T16:24:10.318Z,99946.78
2023-05-28T16:27:12.688Z,99959.16
2023-05-28T16:30:17.082Z,99950.19
2023-05-28T16:33:19.947Z,99946.78
2023-05-28T16:36:23.056Z,99947.50
2023-05-28T16:39:25.995Z,99950.09
2023-05-28T16:42:28.567Z,99948.78
2023-05-28T16:45:31.235Z,99956.03
2023-05-28T16:48:34.743Z,99943.50
2023-05-28T16:51:38.006Z,99954.09
2023-05-28T16:54:41.964Z,99947.38
2023-05-28T16:57:44.327Z,99937.13
2023-05-28T17:00:46.783Z,99941.78
2023-05-28T17:03:49.256Z,99947.06
2023-05-28T17:06:57.774Z,99952.69
2023-05-28T17:10:00.097Z,99949.03
2023-05-28T17:13:02.458Z,99949.06
2023-05-28T17:16:04.968Z,99952.44
2023-05-28T17:19:07.397Z,99951.94
2023-05-28T17:22:09.660Z,99950.97
2023-05-28T17:25:12.063Z,99946.19
2023-05-28T17:28:14.827Z,99956.41
2023-05-28T17:31:17.138Z,99953.22
2023-05-28T17:34:19.495Z,99952.09
2023-05-28T17:37:22.277Z,99953.22
2023-05-28T17:40:24.622Z,99959.13
2023-05-28T17:43:28.801Z,99952.88
2023-05-28T17:46:32.558Z,99961.69
2023-05-28T17:49:37.185Z,99960.25
2023-05-28T17:52:39.506Z,99959.75
2023-05-28T17:55:41.800Z,99955.25
2023-05-28T17:58:44.405Z,99962.78
2023-05-28T18:01:47.166Z,99962.91
2023-05-28T18:04:49.657Z,99970.88
2023-05-28T18:07:52.022Z,99961.56
2023-05-28T18:10:57.746Z,99956.59
2023-05-28T18:14:00.464Z,99961.69
2023-05-28T18:17:02.780Z,99977.84
2023-05-28T18:20:07.203Z,99965.00
2023-05-28T18:23:11.239Z,99972.69
2023-05-28T18:26:13.765Z,99974.09
2023-05-28T18:29:16.304Z,99968.94
2023-05-28T18:32:18.617Z,99973.38
2023-05-28T18:35:21.300Z,99970.63
2023-05-28T18:38:23.611Z,99963.25
2023-05-28T18:41:26.366Z,99971.31
2023-05-28T18:44:28.784Z,99973.66
2023-05-28T18:47:31.553Z,99973.31
2023-05-28T18:50:34.156Z,99976.53
2023-05-28T18:53:36.919Z,99978.66
2023-05-28T18:56:39.716Z,99980.72
2023-05-28T18:59:42.438Z,99990.00
2023-05-28T19:02:45.097Z,99984.59
2023-05-28T19:05:47.585Z,99994.16
2023-05-28T19:08:50.056Z,99995.69
2023-05-28T19:11:52.490Z,99994.66
2023-05-28T19:14:56.675Z,99994.03
2023-05-28T19:17:59.001Z,100015.06
2023-05-28T19:21:01.630Z,100018.69
2023-05-28T19:24:04.185Z,100013.06
2023-05-28T19:27:08.289Z,100016.50
2023-05-28T19:30:11.097Z,100024.53
2023-05-28T19:33:13.475Z,100031.94
2023-05-28T19:36:17.387Z,100024.84
2023-05-28T19:39:19.783Z,100031.16
2023-05-28T19:42:22.047Z,100040.56
2023-05-28T19:45:24.393Z,100028.47
2023-05-28T19:48:27.600Z,100039.00
2023-05-28T19:51:29.903Z,100040.13
2023-05-28T19:54:32.304Z,100036.09
2023-05-28T19:57:34.619Z,100034.00
2023-05-28T20:00:37.395Z,100043.47
2023-05-28T20:03:39.724Z,100046.88
2023-05-28T20:06:43.002Z,100043.91
2023-05-28T20:09:46.241Z,100057.47
2023-05-28T20:12:48.590Z,100050.09
2023-05-28T20:15:53.414Z,100052.91
2023-05-28T20:18:58.216Z,100058.69
2023-05-28T20:22:02.196Z,100055.59
2023-05-28T20:25:05.658Z,100051.66
2023-05-28T20:28:07.999Z,100060.09
2023-05-28T20:31:10.413Z,100057.59
2023-05-28T20:34:14.828Z,100062.28
2023-05-28T20:37:17.900Z,100059.66
2023-05-28T20:40:20.267Z,100059.59
2023-05-28T20:43:22.806Z,100054.53
2023-05-28T20:46:25.163Z,100049.56
2023-05-28T20:49:27.540Z,100038.84
2023-05-28T20:52:29.840Z,100059.28
2023-05-28T20:55:32.101Z,100049.09
2023-05-28T20:58:34.912Z,100051.53
2023-05-28T21:01:38.523Z,100048.16
2023-05-28T21:04:40.999Z,100058.91
2023-05-28T21:07:43.389Z,100057.94
2023-05-28T21:10:46.891Z,100061.69
2023-05-28T21:13:49.206Z,100057.44
2023-05-28T21:16:51.941Z,100063.66
2023-05-28T21:19:54.269Z,100066.44
2023-05-28T21:22:56.562Z,100061.19
2023-05-28T21:25:59.657Z,100058.16
2023-05-28T21:29:01.975Z,100058.09
2023-05-28T21:32:04.433Z,100065.72
2023-05-28T21:35:07.368Z,100067.53
2023-05-28T21:38:09.750Z,100069.25
2023-05-28T21:41:12.087Z,100067.66
2023-05-28T21:44:14.566Z,100061.00
2023-05-28T21:47:16.834Z,100059.13
2023-05-28T21:50:19.114Z,100063.53
2023-05-28T21:53:21.654Z,100057.44
2023-05-28T21:56:23.959Z,100057.75
2023-05-28T21:59:26.389Z,100053.94
2023-05-28T22:02:28.796Z,100051.75
2023-05-28T22:05:31.276Z,100059.13
2023-05-28T22:08:33.777Z,100056.59
2023-05-28T22:11:36.331Z,100063.28
2023-05-28T22:14:39.225Z,100058.28
2023-05-28T22:17:45.994Z,100054.22
2023-05-28T22:20:50.819Z,100057.69
2023-05-28T22:23:53.168Z,100054.19
2023-05-28T22:26:55.906Z,100051.59
2023-05-28T22:29:58.264Z,100050.59
2023-05-28T22:33:01.292Z,100048.13
2023-05-28T22:36:03.921Z,100052.47
2023-05-28T22:39:06.390Z,100050.25
2023-05-28T22:42:09.592Z,100045.66
2023-05-28T22:45:16.972Z,100056.75
2023-05-28T22:48:20.594Z,100052.88
2023-05-28T22:51:24.279Z,100058.31
2023-05-28T22:54:26.870Z,100065.03
2023-05-28T22:57:29.189Z,100060.19
2023-05-28T23:00:31.596Z,100062.91
2023-05-28T23:03:34.193Z,100063.59
2023-05-28T23:06:40.393Z,100064.25
2023-05-28T23:09:42.641Z,100066.31
2023-05-28T23:12:45.071Z,100065.66
2023-05-28T23:15:47.378Z,100063.38
2023-05-28T23:18:51.167Z,100059.53
2023-05-28T23:21:53.573Z,100066.59
2023-05-28T23:24:56.392Z,100062.97
2023-05-28T23:27:58.687Z,100055.44
2023-05-28T23:31:01.116Z,100051.94
2023-05-28T23:34:03.547Z,100051.78
2023-05-28T23:37:06.383Z,100053.66
2023-05-28T23:40:09.195Z,100044.41
2023-05-28T23:43:11.635Z,100056.28
2023-05-28T23:46:13.940Z,100058.41
2023-05-28T23:49:18.467Z,100068.97
2023-05-28T23:52:20.795Z,100076.13
2023-05-28T23:55:23.395Z,100065.53
2023-05-28T23:58:26.278Z,100075.25
